createdAt,value
2023-09-05T00:01:59.404Z,58.66
2023-09-05T00:04:26.558Z,58.69
2023-09-05T00:06:53.438Z,58.95
2023-09-05T00:09:20.265Z,59.05
2023-09-05T00:11:47.448Z,59.16
2023-09-05T00:14:15.058Z,59.02
2023-09-05T00:16:41.850Z,59.01
2023-09-05T00:19:08.720Z,59.29
2023-09-05T00:21:35.492Z,59.02
2023-09-05T00:24:39.666Z,59.26
2023-09-05T00:27:12.035Z,59.15
2023-09-05T00:29:42.870Z,59.24
2023-09-05T00:32:10.988Z,59.47
2023-09-05T00:34:39.981Z,59.52
2023-09-05T00:37:12.054Z,59.55
2023-09-05T00:39:42.628Z,59.49
2023-09-05T00:42:12.052Z,59.45
2023-09-05T00:44:39.262Z,59.38
2023-09-05T00:47:06.687Z,59.64
2023-09-05T00:49:42.854Z,59.62
2023-09-05T00:52:11.850Z,59.63
2023-09-05T00:54:42.014Z,59.72
2023-09-05T00:57:16.305Z,59.67
2023-09-05T00:59:44.091Z,59.86
2023-09-05T01:02:10.987Z,59.72
2023-09-05T01:04:38.378Z,59.67
2023-09-05T01:07:08.666Z,60.11
2023-09-05T01:10:04.684Z,60.18
2023-09-05T01:12:31.693Z,60.32
2023-09-05T01:14:58.995Z,60.43
2023-09-05T01:17:25.774Z,60.41
2023-09-05T01:19:56.964Z,60.46
2023-09-05T01:22:35.625Z,60.48
2023-09-05T01:25:04.108Z,60.45
2023-09-05T01:27:31.221Z,60.63
2023-09-05T01:29:58.497Z,60.77
2023-09-05T01:32:25.364Z,60.88
2023-09-05T01:34:52.107Z,60.99
2023-09-05T01:37:20.016Z,61.10
2023-09-05T01:39:46.802Z,61.06
2023-09-05T01:42:13.575Z,61.10
2023-09-05T01:44:40.473Z,61.15
2023-09-05T01:47:07.863Z,61.32
2023-09-05T01:49:34.799Z,61.43
2023-09-05T01:52:01.632Z,61.58
2023-09-05T01:54:29.314Z,61.65
2023-09-05T01:56:56.322Z,61.75
2023-09-05T01:59:23.178Z,61.81
2023-09-05T02:01:50.208Z,61.64
2023-09-05T02:04:17.076Z,61.83
2023-09-05T02:06:47.411Z,61.57
2023-09-05T02:09:14.164Z,61.70
2023-09-05T02:11:40.980Z,61.78
2023-09-05T02:14:09.011Z,61.63
2023-09-05T02:16:35.874Z,61.71
2023-09-05T02:19:02.710Z,61.46
2023-09-05T02:21:29.534Z,61.62
2023-09-05T02:23:56.525Z,61.77
2023-09-05T02:26:23.276Z,61.93
2023-09-05T02:28:51.349Z,61.64
2023-09-05T02:31:18.296Z,62.09
2023-09-05T02:33:45.512Z,61.91
2023-09-05T02:36:18.542Z,62.36
2023-09-05T02:38:46.143Z,62.25
2023-09-05T02:41:14.278Z,62.61
2023-09-05T02:43:41.437Z,62.68
2023-09-05T02:46:09.042Z,62.67
2023-09-05T02:48:40.781Z,62.66
2023-09-05T02:51:10.641Z,62.76
2023-09-05T02:53:37.514Z,63.00
2023-09-05T02:56:05.233Z,62.24
2023-09-05T02:58:35.402Z,62.63
2023-09-05T03:01:03.868Z,62.50
2023-09-05T03:03:30.837Z,62.41
2023-09-05T03:05:59.061Z,62.66
2023-09-05T03:08:26.314Z,62.62
2023-09-05T03:10:53.951Z,62.60
2023-09-05T03:13:20.966Z,62.88
2023-09-05T03:15:53.436Z,62.79
2023-09-05T03:18:20.684Z,62.74
2023-09-05T03:20:48.049Z,62.94
2023-09-05T03:23:16.109Z,62.89
2023-09-05T03:25:43.621Z,62.72
2023-09-05T03:28:14.287Z,62.68
2023-09-05T03:30:46.612Z,62.81
2023-09-05T03:33:13.532Z,62.67
2023-09-05T03:35:40.450Z,62.61
2023-09-05T03:38:07.802Z,62.63
2023-09-05T03:40:35.622Z,62.57
2023-09-05T03:43:02.622Z,62.83
2023-09-05T03:45:29.385Z,62.69
2023-09-05T03:48:01.329Z,62.88
2023-09-05T03:50:29.044Z,62.74
2023-09-05T03:52:55.840Z,63.30
2023-09-05T03:55:23.525Z,62.99
2023-09-05T03:57:50.282Z,63.17
2023-09-05T04:00:17.180Z,62.93
2023-09-05T04:02:44.020Z,63.02
2023-09-05T04:05:12.347Z,63.11
2023-09-05T04:07:41.836Z,63.09
2023-09-05T04:10:12.727Z,62.84
2023-09-05T04:12:39.476Z,62.94
2023-09-05T04:15:06.855Z,62.77
2023-09-05T04:17:34.144Z,62.64
2023-09-05T04:20:00.955Z,62.73
2023-09-05T04:22:30.689Z,62.78
2023-09-05T04:24:59.007Z,62.90
2023-09-05T04:27:25.877Z,62.83
2023-09-05T04:29:55.806Z,62.93
2023-09-05T04:32:32.391Z,62.67
2023-09-05T04:35:04.757Z,62.99
2023-09-05T04:37:33.281Z,63.21
2023-09-05T04:40:02.030Z,63.29
2023-09-05T04:42:28.969Z,63.20
2023-09-05T04:44:55.873Z,63.05
2023-09-05T04:47:25.230Z,62.70
2023-09-05T04:49:59.945Z,62.80
2023-09-05T04:52:29.065Z,62.81
2023-09-05T04:54:57.411Z,62.62
2023-09-05T04:57:24.397Z,62.82
2023-09-05T04:59:55.220Z,62.81
2023-09-05T05:02:21.991Z,62.52
2023-09-05T05:04:48.824Z,62.45
2023-09-05T05:07:16.978Z,62.51
2023-09-05T05:09:44.315Z,62.45
2023-09-05T05:12:11.084Z,62.33
2023-09-05T05:14:37.883Z,62.05
2023-09-05T05:17:05.593Z,62.12
2023-09-05T05:19:33.998Z,61.87
2023-09-05T05:22:02.083Z,61.74
2023-09-05T05:24:28.805Z,61.45
2023-09-05T05:26:56.340Z,61.33
2023-09-05T05:29:23.764Z,61.30
2023-09-05T05:31:50.539Z,61.24
2023-09-05T05:34:17.768Z,60.95
2023-09-05T05:36:46.084Z,61.00
2023-09-05T05:39:13.368Z,60.68
2023-09-05T05:41:40.333Z,60.49
2023-09-05T05:44:07.216Z,60.31
2023-09-05T05:46:34.093Z,60.04
2023-09-05T05:49:01.995Z,60.08
2023-09-05T05:51:29.127Z,60.09
2023-09-05T05:53:56.139Z,59.74
2023-09-05T05:56:23.193Z,59.68
2023-09-05T05:58:49.952Z,59.64
2023-09-05T06:01:19.796Z,59.59
2023-09-05T06:03:48.699Z,59.34
2023-09-05T06:06:16.681Z,59.38
2023-09-05T06:08:43.612Z,59.16
2023-09-05T06:11:10.555Z,58.89
2023-09-05T06:13:37.416Z,58.63
2023-09-05T06:16:04.689Z,58.68
2023-09-05T06:18:31.580Z,58.30
2023-09-05T06:20:58.542Z,58.26
2023-09-05T06:23:25.552Z,58.13
2023-09-05T06:25:52.423Z,58.16
2023-09-05T06:28:19.323Z,57.76
2023-09-05T06:30:46.133Z,57.60
2023-09-05T06:33:15.528Z,57.44
2023-09-05T06:35:42.782Z,57.45
2023-09-05T06:38:09.529Z,58.05
2023-09-05T06:40:36.335Z,59.08
2023-09-05T06:43:03.204Z,57.55
2023-09-05T06:45:30.450Z,54.99
2023-09-05T06:47:57.734Z,51.33
2023-09-05T06:50:25.376Z,45.92
2023-09-05T06:52:52.186Z,41.30
2023-09-05T06:55:19.065Z,37.92
2023-09-05T06:57:47.584Z,34.37
2023-09-05T07:00:14.535Z,31.97
2023-09-05T07:02:42.146Z,29.59
2023-09-05T07:05:09.154Z,26.85
2023-09-05T07:07:37.229Z,25.27
2023-09-05T07:10:05.396Z,24.03
2023-09-05T07:12:32.587Z,23.22
2023-09-05T07:14:59.494Z,21.80
2023-09-05T07:17:26.283Z,20.48
2023-09-05T07:19:53.266Z,19.32
2023-09-05T07:22:22.939Z,18.27
2023-09-05T07:24:49.834Z,17.90
2023-09-05T07:27:18.041Z,16.90
2023-09-05T07:29:44.787Z,16.15
2023-09-05T07:32:11.717Z,16.02
2023-09-05T07:34:38.583Z,15.45
2023-09-05T07:37:06.585Z,15.08
2023-09-05T07:39:33.315Z,14.67
2023-09-05T07:42:01.214Z,14.69
2023-09-05T07:44:27.908Z,14.03
2023-09-05T07:46:54.669Z,13.60
2023-09-05T07:49:22.322Z,13.90
2023-09-05T07:51:49.223Z,13.11
2023-09-05T07:54:18.090Z,12.74
2023-09-05T07:56:44.910Z,12.93
2023-09-05T07:59:11.698Z,12.42
2023-09-05T08:01:39.026Z,12.14
2023-09-05T08:04:06.978Z,12.11
2023-09-05T08:06:34.079Z,12.59
2023-09-05T08:09:01.165Z,12.49
2023-09-05T08:11:28.701Z,12.69
2023-09-05T08:13:57.246Z,13.26
2023-09-05T08:16:24.206Z,12.78
2023-09-05T08:18:50.988Z,12.28
2023-09-05T08:21:18.578Z,12.35
2023-09-05T08:23:45.740Z,12.37
2023-09-05T08:26:13.089Z,12.44
2023-09-05T08:28:44.510Z,12.17
2023-09-05T08:31:18.256Z,11.91
2023-09-05T08:33:45.927Z,11.86
2023-09-05T08:36:14.246Z,12.14
2023-09-05T08:38:41.225Z,12.57
2023-09-05T08:41:09.249Z,12.58
2023-09-05T08:43:39.061Z,12.24
2023-09-05T08:46:06.162Z,12.18
2023-09-05T08:48:51.821Z,13.28
2023-09-05T08:51:22.297Z,13.29
2023-09-05T08:53:57.657Z,14.43
2023-09-05T08:56:26.579Z,15.22
2023-09-05T08:58:54.030Z,16.17
2023-09-05T09:01:23.609Z,17.11
2023-09-05T09:03:50.653Z,18.24
2023-09-05T09:06:17.554Z,19.75
2023-09-05T09:08:45.583Z,20.75
2023-09-05T09:11:12.694Z,21.38
2023-09-05T09:13:42.678Z,22.29
2023-09-05T09:16:09.638Z,23.05
2023-09-05T09:18:36.592Z,23.46
2023-09-05T09:21:06.425Z,24.93
2023-09-05T09:23:34.907Z,25.69
2023-09-05T09:26:04.078Z,26.06
2023-09-05T09:28:33.148Z,27.11
2023-09-05T09:31:00.101Z,27.13
2023-09-05T09:33:27.513Z,27.14
2023-09-05T09:36:07.472Z,29.17
2023-09-05T09:38:34.890Z,28.67
2023-09-05T09:41:06.928Z,29.09
2023-09-05T09:43:38.174Z,30.29
2023-09-05T09:46:06.970Z,29.83
2023-09-05T09:48:35.795Z,30.36
2023-09-05T09:51:06.162Z,30.67
2023-09-05T09:53:39.503Z,31.25
2023-09-05T09:56:20.337Z,31.47
2023-09-05T09:58:48.944Z,31.47
2023-09-05T10:01:15.887Z,31.35
2023-09-05T10:03:45.872Z,31.86
2023-09-05T10:06:13.703Z,31.69
2023-09-05T10:08:46.447Z,32.20
2023-09-05T10:11:15.627Z,32.18
2023-09-05T10:13:44.136Z,32.31
2023-09-05T10:16:14.610Z,32.93
2023-09-05T10:18:45.363Z,33.08
2023-09-05T10:21:13.032Z,33.01
2023-09-05T10:23:41.328Z,33.51
2023-09-05T10:26:10.432Z,33.15
2023-09-05T10:28:38.957Z,33.83
2023-09-05T10:31:08.070Z,34.18
2023-09-05T10:33:38.471Z,34.34
2023-09-05T10:36:07.793Z,34.12
2023-09-05T10:38:37.660Z,34.00
2023-09-05T10:41:05.130Z,33.96
2023-09-05T10:43:33.221Z,34.20
2023-09-05T10:46:01.747Z,34.26
2023-09-05T10:48:38.660Z,33.50
2023-09-05T10:51:09.704Z,33.62
2023-09-05T10:53:44.655Z,34.02
2023-09-05T10:56:41.909Z,33.71
2023-09-05T10:59:26.140Z,33.35
2023-09-05T11:01:56.247Z,33.22
2023-09-05T11:04:29.108Z,32.84
2023-09-05T11:07:07.876Z,32.84
2023-09-05T11:09:42.580Z,33.01
2023-09-05T11:12:11.369Z,32.67
2023-09-05T11:14:38.548Z,32.76
2023-09-05T11:17:05.370Z,33.21
2023-09-05T11:19:39.530Z,33.61
2023-09-05T11:22:26.737Z,33.84
2023-09-05T11:24:59.495Z,33.82
2023-09-05T11:27:28.353Z,33.54
2023-09-05T11:29:57.719Z,33.59
2023-09-05T11:32:34.178Z,33.62
2023-09-05T11:35:04.732Z,33.66
2023-09-05T11:37:31.735Z,33.33
2023-09-05T11:40:16.665Z,30.79
2023-09-05T11:42:44.166Z,31.92
2023-09-05T11:45:20.789Z,31.22
2023-09-05T11:47:50.225Z,31.46
2023-09-05T11:50:19.410Z,31.44
2023-09-05T11:52:46.859Z,31.32
2023-09-05T11:55:14.216Z,31.79
2023-09-05T11:57:42.180Z,31.38
2023-09-05T12:00:13.074Z,31.35
2023-09-05T12:02:40.235Z,31.46
2023-09-05T12:05:10.078Z,31.83
2023-09-05T12:07:37.387Z,31.97
2023-09-05T12:10:06.034Z,31.98
2023-09-05T12:12:32.955Z,31.33
2023-09-05T12:15:01.092Z,31.37
2023-09-05T12:17:28.739Z,31.35
2023-09-05T12:19:58.439Z,30.52
2023-09-05T12:22:32.631Z,30.14
2023-09-05T12:25:19.692Z,29.80
2023-09-05T12:27:49.150Z,30.07
2023-09-05T12:30:32.752Z,29.90
2023-09-05T12:33:04.956Z,30.08
2023-09-05T12:35:34.347Z,30.30
2023-09-05T12:38:02.012Z,29.97
2023-09-05T12:40:30.192Z,29.87
2023-09-05T12:42:57.012Z,30.11
2023-09-05T12:45:23.856Z,30.00
2023-09-05T12:47:53.475Z,29.70
2023-09-05T12:50:31.829Z,29.66
2023-09-05T12:53:06.282Z,29.59
2023-09-05T12:55:34.970Z,30.35
2023-09-05T12:58:05.264Z,29.95
2023-09-05T13:00:35.215Z,30.51
2023-09-05T13:03:04.056Z,29.83
2023-09-05T13:05:31.821Z,30.08
2023-09-05T13:08:00.406Z,30.54
2023-09-05T13:10:27.526Z,30.32
2023-09-05T13:12:56.260Z,30.17
2023-09-05T13:15:24.960Z,30.04
2023-09-05T13:17:52.381Z,29.82
2023-09-05T13:20:20.454Z,29.82
2023-09-05T13:22:51.514Z,30.11
2023-09-05T13:25:19.887Z,30.33
2023-09-05T13:27:49.391Z,30.43
2023-09-05T13:30:18.935Z,30.26
2023-09-05T13:32:45.891Z,30.91
2023-09-05T13:35:12.943Z,30.09
2023-09-05T13:37:39.835Z,30.05
2023-09-05T13:40:07.785Z,30.30
2023-09-05T13:42:34.870Z,30.78
2023-09-05T13:45:01.912Z,30.81
2023-09-05T13:47:29.317Z,30.69
2023-09-05T13:49:57.110Z,30.28
2023-09-05T13:52:23.980Z,30.74
2023-09-05T13:54:50.776Z,30.55
2023-09-05T13:57:17.884Z,30.83
2023-09-05T13:59:46.428Z,30.43
2023-09-05T14:02:13.407Z,30.30
2023-09-05T14:04:40.506Z,30.35
2023-09-05T14:07:07.275Z,30.51
2023-09-05T14:09:36.514Z,30.20
2023-09-05T14:12:03.289Z,30.25
2023-09-05T14:14:30.370Z,30.54
2023-09-05T14:16:59.304Z,30.85
2023-09-05T14:19:26.127Z,30.94
2023-09-05T14:21:52.937Z,31.09
2023-09-05T14:24:20.775Z,30.65
2023-09-05T14:26:49.405Z,30.74
2023-09-05T14:29:17.005Z,30.70
2023-09-05T14:31:44.918Z,30.53
2023-09-05T14:34:13.146Z,29.93
2023-09-05T14:36:41.877Z,30.18
2023-09-05T14:39:08.762Z,29.62
2023-09-05T14:41:36.636Z,29.46
2023-09-05T14:44:06.222Z,29.81
2023-09-05T14:46:35.876Z,29.30
2023-09-05T14:49:03.570Z,29.15
2023-09-05T14:51:31.749Z,28.78
2023-09-05T14:53:58.696Z,28.71
2023-09-05T14:56:25.537Z,28.26
2023-09-05T14:58:54.362Z,28.49
2023-09-05T15:01:21.395Z,28.50
2023-09-05T15:03:49.000Z,28.50
2023-09-05T15:06:16.098Z,28.98
2023-09-05T15:08:43.754Z,28.62
2023-09-05T15:11:11.372Z,28.98
2023-09-05T15:13:39.610Z,28.71
2023-09-05T15:16:09.073Z,29.10
2023-09-05T15:18:36.793Z,29.19
2023-09-05T15:21:03.733Z,28.94
2023-09-05T15:23:32.057Z,28.50
2023-09-05T15:26:00.041Z,28.73
2023-09-05T15:28:27.046Z,28.75
2023-09-05T15:30:54.073Z,28.80
2023-09-05T15:33:21.472Z,29.27
2023-09-05T15:35:48.710Z,29.07
2023-09-05T15:38:15.416Z,29.59
2023-09-05T15:40:43.383Z,29.40
2023-09-05T15:43:11.032Z,29.33
2023-09-05T15:45:47.943Z,29.31
2023-09-05T15:48:16.698Z,29.96
2023-09-05T15:50:44.326Z,29.60
2023-09-05T15:53:11.410Z,29.77
2023-09-05T15:55:38.252Z,30.14
2023-09-05T15:58:05.302Z,30.06
2023-09-05T16:00:33.921Z,30.53
2023-09-05T16:03:00.999Z,30.14
2023-09-05T16:05:28.091Z,30.59
2023-09-05T16:07:54.904Z,30.61
2023-09-05T16:10:23.104Z,30.40
2023-09-05T16:12:50.425Z,30.85
2023-09-05T16:15:17.573Z,30.62
2023-09-05T16:17:44.641Z,31.16
2023-09-05T16:20:11.887Z,30.92
2023-09-05T16:22:39.258Z,31.70
2023-09-05T16:25:06.566Z,31.90
2023-09-05T16:27:33.685Z,32.21
2023-09-05T16:30:01.902Z,32.22
2023-09-05T16:32:31.041Z,32.95
2023-09-05T16:34:58.146Z,33.17
2023-09-05T16:37:24.942Z,33.20
2023-09-05T16:39:52.929Z,33.86
2023-09-05T16:42:19.865Z,34.38
2023-09-05T16:44:47.550Z,34.57
2023-09-05T16:47:15.253Z,34.29
2023-09-05T16:49:42.142Z,34.68
2023-09-05T16:52:08.924Z,34.98
2023-09-05T16:54:35.774Z,35.07
2023-09-05T16:57:02.654Z,35.74
2023-09-05T16:59:29.788Z,35.85
2023-09-05T17:01:56.726Z,36.18
2023-09-05T17:04:24.018Z,36.19
2023-09-05T17:06:54.290Z,36.43
2023-09-05T17:09:21.310Z,36.65
2023-09-05T17:11:49.957Z,36.93
2023-09-05T17:14:17.991Z,37.13
2023-09-05T17:16:44.844Z,37.38
2023-09-05T17:19:13.064Z,37.37
2023-09-05T17:21:41.243Z,37.53
2023-09-05T17:24:09.076Z,37.57
2023-09-05T17:26:38.249Z,38.11
2023-09-05T17:29:06.263Z,38.27
2023-09-05T17:31:33.274Z,38.27
2023-09-05T17:34:03.680Z,38.34
2023-09-05T17:36:30.809Z,38.53
2023-09-05T17:38:58.723Z,38.88
2023-09-05T17:41:25.590Z,39.02
2023-09-05T17:43:52.508Z,39.20
2023-09-05T17:46:19.281Z,39.44
2023-09-05T17:48:46.921Z,39.73
2023-09-05T17:51:16.249Z,39.86
2023-09-05T17:53:43.466Z,39.80
2023-09-05T17:56:10.216Z,40.37
2023-09-05T17:58:37.358Z,40.37
2023-09-05T18:01:11.856Z,40.80
2023-09-05T18:03:38.860Z,40.71
2023-09-05T18:06:07.451Z,40.93
2023-09-05T18:08:34.173Z,41.11
2023-09-05T18:11:08.699Z,41.41
2023-09-05T18:13:35.516Z,41.53
2023-09-05T18:16:07.079Z,41.75
2023-09-05T18:18:36.447Z,41.98
2023-09-05T18:21:07.163Z,42.18
2023-09-05T18:23:36.659Z,42.28
2023-09-05T18:26:05.881Z,43.00
2023-09-05T18:28:33.846Z,42.50
2023-09-05T18:31:11.059Z,42.92
2023-09-05T18:33:40.784Z,43.01
2023-09-05T18:36:09.882Z,43.46
2023-09-05T18:38:41.499Z,43.74
2023-09-05T18:41:15.766Z,43.92
2023-09-05T18:43:44.548Z,44.42
2023-09-05T18:46:15.920Z,44.51
2023-09-05T18:48:44.536Z,44.70
2023-09-05T18:51:17.154Z,44.82
2023-09-05T18:53:45.268Z,44.61
2023-09-05T18:56:13.120Z,44.72
2023-09-05T18:58:39.873Z,45.25
2023-09-05T19:01:07.661Z,45.13
2023-09-05T19:03:34.690Z,45.26
2023-09-05T19:06:02.963Z,45.31
2023-09-05T19:08:29.988Z,45.52
2023-09-05T19:10:57.419Z,45.29
2023-09-05T19:13:24.435Z,45.67
2023-09-05T19:15:54.103Z,45.67
2023-09-05T19:18:23.348Z,45.28
2023-09-05T19:20:56.158Z,45.66
2023-09-05T19:23:24.154Z,45.49
2023-09-05T19:25:51.218Z,45.63
2023-09-05T19:28:18.709Z,45.62
2023-09-05T19:30:46.074Z,45.37
2023-09-05T19:33:13.027Z,45.65
2023-09-05T19:35:39.843Z,45.65
2023-09-05T19:38:06.724Z,45.98
2023-09-05T19:40:33.569Z,45.76
2023-09-05T19:43:00.815Z,46.28
2023-09-05T19:45:27.630Z,46.35
2023-09-05T19:47:55.647Z,46.32
2023-09-05T19:50:22.681Z,46.59
2023-09-05T19:52:49.510Z,46.77
2023-09-05T19:55:16.314Z,47.10
2023-09-05T19:57:45.816Z,46.83
2023-09-05T20:00:13.263Z,47.34
2023-09-05T20:02:40.409Z,47.07
2023-09-05T20:05:07.638Z,47.49
2023-09-05T20:07:35.747Z,47.46
2023-09-05T20:10:04.606Z,47.67
2023-09-05T20:12:32.379Z,47.59
2023-09-05T20:14:59.700Z,47.63
2023-09-05T20:17:28.122Z,47.67
2023-09-05T20:19:55.058Z,47.53
2023-09-05T20:22:21.813Z,47.60
2023-09-05T20:24:48.644Z,48.04
2023-09-05T20:27:16.816Z,48.01
2023-09-05T20:29:43.547Z,48.45
2023-09-05T20:32:10.382Z,48.16
2023-09-05T20:34:37.127Z,48.45
2023-09-05T20:37:04.021Z,48.41
2023-09-05T20:39:30.880Z,48.97
2023-09-05T20:41:59.300Z,49.04
2023-09-05T20:44:27.185Z,49.15
2023-09-05T20:46:55.076Z,49.18
2023-09-05T20:49:22.175Z,48.86
2023-09-05T20:51:49.668Z,49.13
2023-09-05T20:54:16.622Z,49.11
2023-09-05T20:56:43.468Z,49.14
2023-09-05T20:59:10.277Z,49.51
2023-09-05T21:01:38.436Z,49.58
2023-09-05T21:04:05.927Z,49.34
2023-09-05T21:06:33.281Z,49.59
2023-09-05T21:09:00.109Z,49.40
2023-09-05T21:11:28.231Z,49.52
2023-09-05T21:13:57.040Z,49.59
2023-09-05T21:16:24.941Z,49.58
2023-09-05T21:18:52.357Z,50.09
2023-09-05T21:21:19.359Z,49.95
2023-09-05T21:23:46.287Z,50.45
2023-09-05T21:26:13.108Z,50.41
2023-09-05T21:28:40.545Z,50.56
2023-09-05T21:31:07.502Z,50.44
2023-09-05T21:33:35.383Z,50.90
2023-09-05T21:36:02.303Z,50.69
2023-09-05T21:38:29.397Z,50.75
2023-09-05T21:40:56.925Z,50.90
2023-09-05T21:43:23.864Z,50.99
2023-09-05T21:45:51.920Z,50.97
2023-09-05T21:48:18.847Z,51.20
2023-09-05T21:50:45.564Z,51.22
2023-09-05T21:53:12.922Z,51.64
2023-09-05T21:55:39.726Z,51.64
2023-09-05T21:58:06.564Z,51.67
2023-09-05T22:00:33.949Z,51.88
2023-09-05T22:03:01.730Z,51.97
2023-09-05T22:05:29.995Z,52.05
2023-09-05T22:08:01.268Z,52.04
2023-09-05T22:10:28.966Z,52.17
2023-09-05T22:12:55.854Z,52.34
2023-09-05T22:15:23.037Z,52.68
2023-09-05T22:17:53.812Z,52.64
2023-09-05T22:20:24.718Z,52.85
2023-09-05T22:22:51.657Z,52.98
2023-09-05T22:25:19.041Z,52.85
2023-09-05T22:27:46.233Z,53.31
2023-09-05T22:30:16.419Z,53.50
2023-09-05T22:32:44.301Z,53.38
2023-09-05T22:35:11.774Z,53.61
2023-09-05T22:37:40.032Z,53.42
2023-09-05T22:40:17.812Z,53.47
2023-09-05T22:42:49.095Z,53.89
2023-09-05T22:45:16.671Z,54.00
2023-09-05T22:47:45.519Z,54.28
2023-09-05T22:50:12.540Z,54.23
2023-09-05T22:52:40.131Z,54.41
2023-09-05T22:55:09.186Z,54.46
2023-09-05T22:57:36.361Z,54.44
2023-09-05T23:00:05.074Z,54.48
2023-09-05T23:02:32.012Z,54.65
2023-09-05T23:05:00.025Z,54.96
2023-09-05T23:07:26.865Z,55.00
2023-09-05T23:09:53.726Z,55.04
2023-09-05T23:12:20.850Z,55.14
2023-09-05T23:14:49.729Z,55.34
2023-09-05T23:17:16.636Z,55.60
2023-09-05T23:19:43.531Z,55.63
2023-09-05T23:22:10.558Z,55.87
2023-09-05T23:24:38.329Z,56.08
2023-09-05T23:27:06.306Z,56.19
2023-09-05T23:29:38.518Z,56.50
2023-09-05T23:32:06.978Z,56.76
2023-09-05T23:34:37.251Z,56.83
2023-09-05T23:37:08.852Z,56.72
2023-09-05T23:39:35.766Z,57.01
2023-09-05T23:42:02.624Z,57.07
2023-09-05T23:44:29.495Z,57.07
2023-09-05T23:46:56.382Z,57.03
2023-09-05T23:49:23.290Z,56.97
2023-09-05T23:51:50.274Z,57.20
2023-09-05T23:54:17.052Z,57.04
2023-09-05T23:56:43.914Z,57.15
2023-09-05T23:59:10.839Z,57.22
